createdAt,value
2018-01-18T00:00:55.270Z,15.00
2018-01-18T00:03:23.636Z,15.90
2018-01-18T00:05:54.081Z,14.63
2018-01-18T00:08:22.539Z,14.83
2018-01-18T00:10:51.286Z,14.30
2018-01-18T00:13:20.604Z,15.63
2018-01-18T00:15:48.883Z,14.77
2018-01-18T00:18:17.489Z,14.60
2018-01-18T00:20:47.204Z,14.83
2018-01-18T00:23:16.754Z,14.20
2018-01-18T00:25:45.666Z,14.80
2018-01-18T00:28:14.341Z,15.60
2018-01-18T00:30:42.617Z,15.70
2018-01-18T00:33:11.498Z,14.67
2018-01-18T00:35:40.149Z,13.77
2018-01-18T00:38:10.460Z,14.50
2018-01-18T00:40:39.510Z,14.30
2018-01-18T00:43:08.873Z,16.80
2018-01-18T00:45:38.664Z,15.77
2018-01-18T00:48:08.132Z,16.27
2018-01-18T00:50:37.231Z,15.90
2018-01-18T00:53:05.594Z,15.90
2018-01-18T00:58:07.205Z,16.93
2018-01-18T01:00:36.290Z,16.40
2018-01-18T01:03:05.509Z,16.80
2018-01-18T01:05:33.446Z,16.17
2018-01-18T01:08:02.409Z,15.73
2018-01-18T01:10:31.093Z,17.17
2018-01-18T01:12:59.207Z,17.50
2018-01-18T01:15:28.039Z,16.10
2018-01-18T01:17:56.461Z,17.47
2018-01-18T01:20:26.597Z,15.90
2018-01-18T01:22:55.355Z,16.10
2018-01-18T01:25:24.573Z,17.77
2018-01-18T01:27:54.231Z,15.90
2018-01-18T01:30:22.637Z,17.70
2018-01-18T01:32:51.050Z,16.27
2018-01-18T01:35:19.175Z,16.20
2018-01-18T01:37:47.798Z,16.00
2018-01-18T01:40:16.635Z,15.47
2018-01-18T01:42:46.023Z,17.37
2018-01-18T01:45:14.632Z,16.60
2018-01-18T01:47:44.514Z,16.00
2018-01-18T01:50:13.828Z,16.77
2018-01-18T01:52:42.268Z,17.80
2018-01-18T01:55:11.425Z,15.50
2018-01-18T01:57:40.099Z,17.30
2018-01-18T02:00:08.941Z,16.57
2018-01-18T02:02:38.131Z,17.30
2018-01-18T02:05:07.587Z,17.00
2018-01-18T02:07:37.290Z,16.23
2018-01-18T02:10:05.912Z,17.20
2018-01-18T02:12:34.308Z,19.10
2018-01-18T02:15:03.866Z,16.50
2018-01-18T02:17:32.413Z,16.83
2018-01-18T02:20:02.018Z,16.63
2018-01-18T02:22:30.244Z,17.50
2018-01-18T02:24:58.569Z,17.70
2018-01-18T02:27:27.841Z,16.27
2018-01-18T02:29:56.798Z,17.33
2018-01-18T02:32:25.459Z,17.73
2018-01-18T02:34:53.708Z,18.63
2018-01-18T02:37:22.368Z,17.60
2018-01-18T02:39:52.072Z,18.97
2018-01-18T02:42:20.335Z,18.07
2018-01-18T02:44:50.305Z,17.47
2018-01-18T02:47:20.110Z,17.50
2018-01-18T02:49:48.047Z,20.10
2018-01-18T02:52:17.778Z,18.60
2018-01-18T02:54:46.040Z,19.33
2018-01-18T02:57:14.836Z,19.97
2018-01-18T02:59:43.256Z,18.30
2018-01-18T03:02:13.071Z,18.30
2018-01-18T03:04:42.259Z,20.47
2018-01-18T03:07:10.466Z,19.10
2018-01-18T03:09:38.714Z,18.00
2018-01-18T03:12:06.842Z,19.37
2018-01-18T03:14:35.312Z,19.53
2018-01-18T03:17:04.455Z,18.47
2018-01-18T03:19:32.938Z,20.00
2018-01-18T03:22:01.178Z,20.60
2018-01-18T03:24:29.553Z,19.53
2018-01-18T03:26:59.984Z,20.30
2018-01-18T03:29:28.580Z,20.30
2018-01-18T03:31:57.674Z,21.47
2018-01-18T03:34:25.967Z,21.17
2018-01-18T03:36:54.429Z,22.23
2018-01-18T03:39:22.961Z,22.67
2018-01-18T03:41:51.673Z,20.83
2018-01-18T03:44:21.364Z,20.87
2018-01-18T03:46:50.987Z,20.47
2018-01-18T03:49:21.474Z,20.90
2018-01-18T03:51:50.293Z,20.00
2018-01-18T03:54:18.821Z,21.10
2018-01-18T03:56:47.123Z,21.10
2018-01-18T03:59:16.362Z,20.23
2018-01-18T04:01:45.150Z,19.63
2018-01-18T04:04:13.083Z,18.47
2018-01-18T04:06:41.725Z,17.90
2018-01-18T04:09:09.988Z,17.93
2018-01-18T04:11:38.273Z,18.97
2018-01-18T04:14:07.609Z,18.97
2018-01-18T04:16:36.429Z,18.37
2018-01-18T04:19:04.357Z,18.93
2018-01-18T04:21:32.423Z,19.50
2018-01-18T04:24:02.098Z,19.17
2018-01-18T04:26:30.328Z,18.90
2018-01-18T04:28:58.547Z,20.07
2018-01-18T04:31:28.207Z,18.13
2018-01-18T04:33:57.635Z,18.33
2018-01-18T04:36:26.340Z,19.63
2018-01-18T04:38:54.885Z,18.93
2018-01-18T04:41:23.273Z,17.90
2018-01-18T04:43:52.411Z,18.10
2018-01-18T04:46:20.926Z,20.03
2018-01-18T04:48:49.626Z,19.10
2018-01-18T04:51:19.631Z,19.50
2018-01-18T04:53:48.120Z,20.10
2018-01-18T04:56:17.200Z,18.23
2018-01-18T04:58:46.389Z,19.33
2018-01-18T05:01:15.541Z,20.70
2018-01-18T05:03:44.221Z,18.70
2018-01-18T05:06:12.413Z,17.43
2018-01-18T05:08:40.933Z,18.53
2018-01-18T05:11:09.202Z,20.07
2018-01-18T05:13:38.321Z,16.93
2018-01-18T05:16:06.815Z,18.33
2018-01-18T05:18:35.664Z,17.43
2018-01-18T05:21:04.271Z,18.73
2018-01-18T05:23:33.063Z,17.37
2018-01-18T05:26:01.593Z,16.17
2018-01-18T05:28:31.661Z,16.83
2018-01-18T05:31:01.071Z,17.50
2018-01-18T05:33:30.846Z,16.43
2018-01-18T05:36:00.372Z,17.00
2018-01-18T05:38:28.723Z,17.70
2018-01-18T05:40:56.827Z,18.00
2018-01-18T05:43:26.248Z,17.60
2018-01-18T05:45:55.229Z,14.70
2018-01-18T05:48:24.389Z,14.27
2018-01-18T05:50:53.959Z,14.60
2018-01-18T05:53:22.833Z,15.93
2018-01-18T05:55:52.069Z,16.90
2018-01-18T05:58:21.246Z,15.23
2018-01-18T06:00:50.201Z,14.30
2018-01-18T06:03:19.606Z,13.80
2018-01-18T06:05:48.065Z,14.00
2018-01-18T06:08:16.363Z,14.67
2018-01-18T06:10:45.795Z,14.13
2018-01-18T06:13:14.606Z,13.83
2018-01-18T06:15:43.226Z,15.23
2018-01-18T06:18:11.583Z,13.57
2018-01-18T06:20:40.568Z,14.03
2018-01-18T06:23:10.761Z,12.70
2018-01-18T06:25:40.534Z,14.93
2018-01-18T06:28:09.478Z,13.07
2018-01-18T06:30:39.843Z,13.00
2018-01-18T06:33:09.064Z,12.93
2018-01-18T06:35:38.368Z,12.70
2018-01-18T06:38:07.173Z,11.73
2018-01-18T06:40:36.026Z,12.47
2018-01-18T06:43:04.552Z,12.43
2018-01-18T06:45:33.729Z,12.07
2018-01-18T06:48:03.400Z,12.63
2018-01-18T06:50:35.428Z,12.00
2018-01-18T06:53:04.235Z,11.93
2018-01-18T06:55:33.217Z,11.90
2018-01-18T06:58:03.019Z,10.20
2018-01-18T07:00:31.360Z,12.20
2018-01-18T07:02:59.735Z,10.50
2018-01-18T07:05:28.752Z,11.70
2018-01-18T07:07:57.434Z,11.07
2018-01-18T07:10:25.677Z,10.37
2018-01-18T07:12:58.084Z,9.07
2018-01-18T07:15:30.833Z,7.33
2018-01-18T07:18:03.983Z,8.80
2018-01-18T07:20:38.017Z,11.80
2018-01-18T07:23:09.528Z,9.43
2018-01-18T07:25:37.998Z,9.27
2018-01-18T07:28:10.007Z,7.10
2018-01-18T07:30:40.008Z,8.17
2018-01-18T07:33:09.942Z,6.80
2018-01-18T07:35:40.695Z,7.20
2018-01-18T07:38:11.493Z,7.10
2018-01-18T07:40:42.576Z,6.83
2018-01-18T07:43:14.087Z,6.90
2018-01-18T07:45:42.786Z,6.10
2018-01-18T07:48:11.984Z,6.00
2018-01-18T07:50:41.594Z,6.93
2018-01-18T07:53:12.108Z,7.30
2018-01-18T07:55:40.633Z,5.60
2018-01-18T07:58:11.220Z,7.17
2018-01-18T08:00:40.842Z,7.10
2018-01-18T08:03:16.686Z,6.00
2018-01-18T08:05:47.280Z,6.63
2018-01-18T08:08:15.561Z,6.60
2018-01-18T08:10:46.053Z,5.90
2018-01-18T08:13:18.139Z,6.00
2018-01-18T08:15:48.332Z,5.67
2018-01-18T08:18:17.762Z,5.90
2018-01-18T08:20:46.912Z,5.80
2018-01-18T08:23:15.617Z,6.43
2018-01-18T08:25:43.741Z,6.50
2018-01-18T08:28:13.344Z,6.43
2018-01-18T08:30:41.951Z,6.70
2018-01-18T08:33:11.258Z,5.87
2018-01-18T08:35:44.072Z,6.13
2018-01-18T08:38:15.119Z,5.50
2018-01-18T08:40:44.465Z,6.73
2018-01-18T08:43:15.914Z,6.13
2018-01-18T08:45:47.124Z,6.17
2018-01-18T08:48:17.207Z,6.30
2018-01-18T08:50:47.586Z,5.83
2018-01-18T08:53:18.365Z,5.97
2018-01-18T08:55:48.007Z,5.03
2018-01-18T08:58:16.853Z,5.70
2018-01-18T09:00:45.541Z,6.00
2018-01-18T09:03:14.970Z,5.97
2018-01-18T09:05:42.897Z,6.90
2018-01-18T09:08:10.999Z,6.00
2018-01-18T09:10:39.781Z,5.17
2018-01-18T09:13:09.035Z,6.60
2018-01-18T09:15:40.352Z,6.00
2018-01-18T09:18:11.131Z,5.77
2018-01-18T09:20:42.654Z,6.07
2018-01-18T09:23:13.512Z,5.20
2018-01-18T09:25:43.355Z,5.50
2018-01-18T09:28:12.077Z,5.73
2018-01-18T09:30:40.345Z,5.20
2018-01-18T09:33:09.594Z,5.97
2018-01-18T09:35:41.193Z,5.50
2018-01-18T09:38:10.962Z,5.70
2018-01-18T09:40:42.604Z,6.30
2018-01-18T09:43:13.452Z,6.77
2018-01-18T09:45:43.195Z,6.20
2018-01-18T09:48:15.081Z,5.70
2018-01-18T09:50:47.118Z,6.80
2018-01-18T09:53:16.738Z,5.20
2018-01-18T09:55:48.640Z,6.17
2018-01-18T09:58:21.023Z,6.67
2018-01-18T10:00:50.639Z,6.17
2018-01-18T10:03:21.257Z,6.40
2018-01-18T10:05:51.181Z,6.13
2018-01-18T10:08:20.644Z,6.47
2018-01-18T10:10:49.849Z,6.37
2018-01-18T10:13:18.593Z,6.70
2018-01-18T10:15:46.834Z,6.60
2018-01-18T10:18:17.231Z,5.97
2018-01-18T10:20:46.934Z,6.30
2018-01-18T10:23:15.551Z,5.90
2018-01-18T10:25:43.757Z,6.13
2018-01-18T10:28:11.861Z,5.77
2018-01-18T10:30:39.795Z,5.60
2018-01-18T10:33:08.265Z,5.60
2018-01-18T10:35:37.667Z,6.43
2018-01-18T10:38:06.351Z,6.23
2018-01-18T10:40:34.945Z,6.10
2018-01-18T10:43:03.053Z,5.73
2018-01-18T10:45:31.583Z,4.90
2018-01-18T10:48:00.781Z,5.20
2018-01-18T10:50:28.979Z,5.60
2018-01-18T10:52:56.875Z,5.80
2018-01-18T10:55:25.521Z,5.63
2018-01-18T10:57:53.627Z,5.73
2018-01-18T11:00:21.573Z,6.70
2018-01-18T11:02:50.235Z,5.30
2018-01-18T11:05:20.123Z,6.50
2018-01-18T11:07:48.085Z,6.10
2018-01-18T11:10:16.742Z,6.10
2018-01-18T11:12:45.409Z,6.50
2018-01-18T11:15:14.629Z,7.07
2018-01-18T11:17:43.011Z,7.17
2018-01-18T11:20:11.516Z,6.27
2018-01-18T11:22:39.892Z,6.90
2018-01-18T11:25:08.275Z,5.77
2018-01-18T11:27:37.665Z,6.80
2018-01-18T11:30:07.162Z,6.67
2018-01-18T11:32:35.351Z,6.43
2018-01-18T11:35:04.721Z,6.47
2018-01-18T11:37:32.666Z,6.07
2018-01-18T11:40:01.503Z,7.20
2018-01-18T11:42:29.978Z,7.13
2018-01-18T11:44:58.549Z,6.43
2018-01-18T11:47:27.595Z,7.60
2018-01-18T11:49:55.513Z,5.90
2018-01-18T11:52:23.864Z,5.40
2018-01-18T11:54:52.574Z,6.37
2018-01-18T11:57:21.288Z,5.60
2018-01-18T11:59:49.803Z,6.13
2018-01-18T12:02:17.844Z,6.00
2018-01-18T12:04:45.788Z,5.27
2018-01-18T12:07:14.043Z,5.00
2018-01-18T12:09:43.689Z,6.20
2018-01-18T12:12:11.603Z,6.70
2018-01-18T12:14:40.141Z,6.17
2018-01-18T12:17:08.795Z,5.83
2018-01-18T12:19:37.493Z,4.60
2018-01-18T12:22:06.727Z,5.70
2018-01-18T12:24:35.091Z,6.00
2018-01-18T12:27:03.741Z,6.07
2018-01-18T12:29:31.847Z,6.07
2018-01-18T12:32:00.423Z,6.37
2018-01-18T12:34:29.729Z,6.20
2018-01-18T12:36:57.966Z,6.50
2018-01-18T12:39:26.443Z,5.53
2018-01-18T12:41:54.772Z,6.50
2018-01-18T12:44:23.036Z,6.00
2018-01-18T12:46:51.873Z,5.90
2018-01-18T12:49:20.188Z,6.43
2018-01-18T12:51:49.051Z,6.40
2018-01-18T12:54:19.181Z,7.13
2018-01-18T12:56:47.655Z,7.00
2018-01-18T12:59:15.596Z,6.80
2018-01-18T13:01:44.071Z,6.63
2018-01-18T13:04:12.715Z,5.97
2018-01-18T13:06:41.517Z,6.10
2018-01-18T13:09:10.340Z,5.93
2018-01-18T13:11:38.481Z,6.93
2018-01-18T13:14:06.961Z,7.40
2018-01-18T13:16:35.567Z,6.73
2018-01-18T13:19:03.708Z,6.33
2018-01-18T13:21:32.163Z,6.77
2018-01-18T13:24:00.811Z,6.40
2018-01-18T13:26:29.537Z,8.00
2018-01-18T13:28:57.451Z,7.90
2018-01-18T13:31:26.252Z,7.13
2018-01-18T13:33:55.307Z,7.20
2018-01-18T13:36:24.299Z,7.80
2018-01-18T13:38:52.357Z,7.43
2018-01-18T13:41:20.878Z,8.10
2018-01-18T13:43:49.211Z,7.17
2018-01-18T13:46:17.411Z,8.07
2018-01-18T13:48:45.532Z,7.93
2018-01-18T13:51:14.227Z,7.00
2018-01-18T13:53:43.704Z,8.13
2018-01-18T13:56:11.645Z,7.70
2018-01-18T13:58:40.941Z,8.20
2018-01-18T14:01:09.173Z,7.90
2018-01-18T14:03:37.247Z,8.20
2018-01-18T14:06:05.327Z,7.30
2018-01-18T14:08:34.339Z,9.00
2018-01-18T14:11:02.721Z,8.70
2018-01-18T14:13:31.389Z,9.37
2018-01-18T14:15:59.708Z,9.13
2018-01-18T14:18:28.343Z,8.40
2018-01-18T14:20:57.549Z,9.00
2018-01-18T14:23:26.349Z,8.83
2018-01-18T14:25:54.837Z,8.30
2018-01-18T14:28:23.168Z,7.40
2018-01-18T14:30:51.671Z,8.57
2018-01-18T14:33:20.538Z,8.80
2018-01-18T14:35:48.627Z,8.50
2018-01-18T14:38:18.373Z,8.40
2018-01-18T14:40:46.646Z,8.40
2018-01-18T14:43:14.563Z,8.87
2018-01-18T14:45:42.789Z,8.37
2018-01-18T14:48:11.043Z,8.40
2018-01-18T14:50:40.356Z,8.87
2018-01-18T14:53:09.767Z,8.20
2018-01-18T14:55:38.430Z,8.70
2018-01-18T14:58:07.489Z,9.60
2018-01-18T15:00:35.569Z,7.93
2018-01-18T15:03:03.657Z,8.60
2018-01-18T15:05:32.400Z,9.73
2018-01-18T15:08:01.045Z,9.30
2018-01-18T15:10:29.502Z,9.17
2018-01-18T15:12:57.779Z,10.00
2018-01-18T15:15:27.051Z,10.30
2018-01-18T15:17:55.117Z,9.83
2018-01-18T15:20:23.213Z,10.30
2018-01-18T15:22:51.667Z,9.27
2018-01-18T15:25:20.149Z,10.37
2018-01-18T15:27:48.495Z,9.47
2018-01-18T15:30:17.178Z,10.10
2018-01-18T15:32:46.477Z,10.37
2018-01-18T15:35:15.022Z,11.10
2018-01-18T15:37:43.865Z,8.67
2018-01-18T15:40:12.504Z,9.73
2018-01-18T15:42:40.861Z,8.47
2018-01-18T15:45:09.251Z,9.57
2018-01-18T15:47:37.901Z,8.50
2018-01-18T15:50:07.311Z,9.57
2018-01-18T15:52:36.603Z,9.57
2018-01-18T15:55:05.703Z,9.40
2018-01-18T15:57:34.525Z,8.63
2018-01-18T16:00:03.134Z,8.23
2018-01-18T16:02:31.219Z,8.70
2018-01-18T16:04:59.339Z,8.90
2018-01-18T16:07:27.713Z,8.17
2018-01-18T16:09:56.375Z,8.20
2018-01-18T16:12:24.309Z,8.57
2018-01-18T16:14:53.089Z,9.30
2018-01-18T16:17:21.502Z,8.90
2018-01-18T16:19:51.146Z,8.77
2018-01-18T16:22:20.359Z,9.70
2018-01-18T16:24:48.587Z,9.10
2018-01-18T16:27:17.423Z,9.67
2018-01-18T16:29:46.235Z,9.77
2018-01-18T16:32:14.766Z,9.57
2018-01-18T16:34:42.748Z,9.30
2018-01-18T16:37:11.727Z,10.57
2018-01-18T16:39:40.258Z,10.90
2018-01-18T16:42:08.590Z,10.90
2018-01-18T16:44:37.929Z,10.50
2018-01-18T16:47:08.305Z,10.10
2018-01-18T16:49:37.606Z,10.50
2018-01-18T16:52:07.231Z,11.10
2018-01-18T16:54:35.197Z,10.30
2018-01-18T16:57:04.449Z,9.07
2018-01-18T16:59:33.099Z,10.70
2018-01-18T17:02:01.965Z,11.00
2018-01-18T17:04:31.380Z,11.53
2018-01-18T17:06:59.769Z,10.90
2018-01-18T17:09:27.705Z,9.97
2018-01-18T17:11:55.959Z,10.40
2018-01-18T17:14:25.079Z,11.27
2018-01-18T17:16:53.207Z,10.97
2018-01-18T17:19:21.851Z,11.23
2018-01-18T17:21:50.805Z,10.03
2018-01-18T17:24:19.338Z,11.03
2018-01-18T17:26:48.315Z,11.50
2018-01-18T17:29:16.568Z,12.83
2018-01-18T17:31:45.188Z,12.60
2018-01-18T17:34:13.887Z,13.50
2018-01-18T17:36:42.771Z,14.30
2018-01-18T17:39:11.363Z,14.10
2018-01-18T17:41:40.173Z,13.67
2018-01-18T17:44:09.857Z,13.07
2018-01-18T17:46:39.077Z,12.33
2018-01-18T17:49:08.496Z,13.10
2018-01-18T17:51:37.120Z,12.60
2018-01-18T17:54:05.377Z,11.53
2018-01-18T17:56:34.079Z,11.70
2018-01-18T17:59:02.802Z,13.00
2018-01-18T18:01:31.815Z,14.20
2018-01-18T18:04:00.644Z,13.37
2018-01-18T18:06:28.956Z,12.70
2018-01-18T18:08:57.067Z,13.90
2018-01-18T18:11:25.910Z,14.73
2018-01-18T18:13:54.375Z,14.30
2018-01-18T18:16:22.639Z,13.77
2018-01-18T18:18:50.909Z,15.00
2018-01-18T18:21:19.531Z,14.70
2018-01-18T18:23:47.475Z,15.50
2018-01-18T18:26:16.265Z,16.00
2018-01-18T18:28:44.463Z,15.07
2018-01-18T18:31:13.130Z,14.80
2018-01-18T18:33:42.601Z,16.60
2018-01-18T18:36:10.856Z,17.00
2018-01-18T18:38:38.782Z,16.70
2018-01-18T18:41:06.993Z,19.67
2018-01-18T18:43:35.047Z,17.90
2018-01-18T18:46:03.426Z,17.93
2018-01-18T18:48:31.569Z,18.07
2018-01-18T18:51:00.065Z,16.57
2018-01-18T18:53:29.227Z,15.83
2018-01-18T18:55:58.457Z,16.13
2018-01-18T18:58:26.683Z,19.40
2018-01-18T19:00:55.182Z,18.17
2018-01-18T19:03:24.487Z,16.83
2018-01-18T19:05:53.871Z,17.40
2018-01-18T19:08:22.591Z,19.63
2018-01-18T19:10:51.484Z,18.73
2018-01-18T19:13:20.259Z,17.50
2018-01-18T19:15:48.198Z,17.53
2018-01-18T19:18:16.132Z,16.33
2018-01-18T19:20:44.936Z,15.30
2018-01-18T19:23:14.350Z,15.37
2018-01-18T19:25:43.049Z,16.00
2018-01-18T19:28:11.683Z,13.83
2018-01-18T19:30:40.509Z,15.10
2018-01-18T19:33:08.945Z,18.07
2018-01-18T19:35:37.601Z,20.43
2018-01-18T19:38:06.059Z,19.70
2018-01-18T19:40:33.963Z,16.50
2018-01-18T19:43:02.292Z,13.30
2018-01-18T19:45:30.649Z,14.83
2018-01-18T19:47:58.703Z,14.60
2018-01-18T19:50:26.771Z,14.80
2018-01-18T19:52:54.694Z,15.80
2018-01-18T19:55:22.617Z,13.43
2018-01-18T19:57:50.827Z,16.07
2018-01-18T20:00:18.781Z,16.13
2018-01-18T20:02:47.461Z,15.07
2018-01-18T20:05:16.263Z,14.13
2018-01-18T20:07:44.925Z,18.07
2018-01-18T20:10:12.885Z,17.83
2018-01-18T20:12:40.939Z,16.80
2018-01-18T20:15:08.894Z,15.50
2018-01-18T20:17:36.842Z,15.00
2018-01-18T20:20:04.933Z,15.53
2018-01-18T20:22:32.846Z,15.73
2018-01-18T20:25:00.791Z,15.83
2018-01-18T20:27:28.873Z,16.80
2018-01-18T20:29:56.804Z,15.40
2018-01-18T20:32:24.763Z,15.50
2018-01-18T20:34:52.825Z,14.83
2018-01-18T20:37:21.493Z,15.70
2018-01-18T20:39:50.172Z,15.67
2018-01-18T20:42:18.257Z,16.30
2018-01-18T20:44:46.941Z,17.87
2018-01-18T20:47:15.088Z,16.93
2018-01-18T20:49:43.155Z,15.43
2018-01-18T20:52:11.091Z,16.00
2018-01-18T20:54:39.034Z,27.70
2018-01-18T20:57:07.905Z,15.97
2018-01-18T20:59:35.965Z,18.10
2018-01-18T21:02:03.987Z,17.70
2018-01-18T21:04:32.043Z,19.67
2018-01-18T21:07:00.784Z,16.97
2018-01-18T21:09:28.711Z,18.10
2018-01-18T21:11:57.548Z,19.00
2018-01-18T21:14:25.458Z,19.00
2018-01-18T21:16:54.187Z,18.53
2018-01-18T21:19:22.239Z,19.53
2018-01-18T21:21:50.182Z,19.10
2018-01-18T21:24:18.152Z,18.57
2018-01-18T21:26:46.300Z,20.13
2018-01-18T21:29:14.215Z,22.57
2018-01-18T21:31:42.937Z,18.20
2018-01-18T21:34:10.992Z,18.07
2018-01-18T21:36:38.987Z,19.67
2018-01-18T21:39:06.921Z,19.70
2018-01-18T21:41:35.703Z,18.93
2018-01-18T21:44:04.384Z,20.50
2018-01-18T21:46:33.187Z,19.90
2018-01-18T21:49:01.995Z,19.97
2018-01-18T21:51:29.953Z,18.70
2018-01-18T21:53:57.883Z,20.07
2018-01-18T21:56:25.927Z,20.07
2018-01-18T21:58:53.849Z,20.50
2018-01-18T22:01:22.525Z,19.90
2018-01-18T22:03:50.602Z,20.87
2018-01-18T22:06:19.343Z,22.17
2018-01-18T22:08:47.283Z,20.77
2018-01-18T22:11:15.362Z,19.53
2018-01-18T22:13:43.321Z,18.57
2018-01-18T22:16:11.986Z,19.70
2018-01-18T22:18:40.035Z,19.80
2018-01-18T22:21:07.978Z,20.40
2018-01-18T22:23:35.905Z,19.93
2018-01-18T22:26:04.704Z,21.17
2018-01-18T22:28:33.368Z,20.63
2018-01-18T22:31:01.320Z,21.87
2018-01-18T22:33:29.377Z,20.50
2018-01-18T22:35:57.319Z,20.30
2018-01-18T22:38:25.296Z,20.23
2018-01-18T22:40:53.364Z,20.23
2018-01-18T22:43:21.335Z,18.80
2018-01-18T22:45:49.259Z,20.37
2018-01-18T22:48:17.455Z,21.43
2018-01-18T22:50:46.123Z,20.80
2018-01-18T22:53:14.077Z,19.27
2018-01-18T22:55:42.150Z,19.77
2018-01-18T22:58:10.067Z,22.00
2018-01-18T23:00:38.740Z,20.10
2018-01-18T23:03:07.545Z,19.80
2018-01-18T23:05:36.204Z,21.07
2018-01-18T23:08:04.153Z,19.90
2018-01-18T23:10:32.239Z,20.90
2018-01-18T23:13:00.153Z,20.00
2018-01-18T23:15:28.101Z,18.97
2018-01-18T23:17:56.899Z,19.37
2018-01-18T23:20:25.578Z,19.80
2018-01-18T23:22:54.236Z,19.17
2018-01-18T23:25:22.283Z,19.20
2018-01-18T23:27:50.217Z,19.43
2018-01-18T23:30:19.061Z,20.27
2018-01-18T23:32:47.149Z,18.43
2018-01-18T23:35:15.923Z,19.10
2018-01-18T23:37:44.107Z,20.27
2018-01-18T23:40:12.226Z,20.00
2018-01-18T23:42:40.145Z,21.27
2018-01-18T23:45:08.101Z,18.03
2018-01-18T23:47:36.189Z,21.13
2018-01-18T23:50:04.271Z,20.10
2018-01-18T23:52:32.200Z,21.33
2018-01-18T23:55:00.273Z,19.67
2018-01-18T23:57:28.183Z,19.63
2018-01-18T23:59:56.130Z,21.10
